Terminal Aerodrome Forecast
Issued by NWS

Home | Current Version | Previous Version | Text Only | Print | Product List | Glossary On
Versions: 1 2 3 4 5 6 7 8 9 10 11 12 13 14 15 16 17 18 19 20 21 22 23 24
000
FTUS42 KFFC 180500
TAFRYY
TAF
KRYY 180520Z 1806/1906 09006KT P6SM BKN040
     FM181100 07009KT P6SM -RA OVC025
     FM181500 06011G20KT 5SM SHRA OVC015
     FM182200 05012G22KT 4SM SHRA BR OVC008
     FM190200 05016G26KT 2SM SHRA BR OVC008
      AMD NOT SKED TIL 181200=

USA.gov is the U.S. government's official web portal to all federal, state and local government web resources and services.